createdAt,value
2018-02-09T04:32:36.138Z,67.93
2018-02-09T04:35:09.934Z,76.97
2018-02-09T04:37:43.785Z,69.22
2018-02-09T04:40:17.510Z,66.78
2018-02-09T04:42:51.576Z,64.03
2018-02-09T04:45:25.375Z,69.18
2018-02-09T04:47:59.511Z,69.78
2018-02-09T04:50:33.228Z,72.57
2018-02-09T04:53:06.983Z,70.47
2018-02-09T04:55:41.491Z,72.32
2018-02-09T04:58:34.578Z,81.07
2018-02-09T05:01:09.112Z,69.87
2018-02-09T05:03:42.909Z,83.45
2018-02-09T05:06:17.408Z,80.60
2018-02-09T05:08:51.303Z,69.72
2018-02-09T05:11:24.923Z,76.57
2018-02-09T05:13:58.659Z,75.03
2018-02-09T05:16:32.529Z,74.70
2018-02-09T05:19:06.293Z,80.53
2018-02-09T05:21:40.744Z,85.32
2018-02-09T05:24:14.529Z,84.65
2018-02-09T05:26:48.333Z,85.68
2018-02-09T05:29:22.070Z,80.07
2018-02-09T05:31:56.778Z,78.40
2018-02-09T05:34:30.608Z,77.47
2018-02-09T05:37:04.547Z,80.65
2018-02-09T05:39:38.595Z,76.82
2018-02-09T05:42:12.223Z,76.60
2018-02-09T05:44:45.987Z,77.37
2018-02-09T05:47:19.903Z,82.03
2018-02-09T05:49:53.740Z,76.40
2018-02-09T05:52:27.618Z,77.75
2018-02-09T05:55:02.130Z,93.68
2018-02-09T05:57:36.687Z,90.72
2018-02-09T06:00:10.917Z,76.50
2018-02-09T06:02:44.935Z,77.70
2018-02-09T06:05:19.552Z,73.65
2018-02-09T06:07:53.389Z,76.57
2018-02-09T06:10:28.183Z,72.82
2018-02-09T06:13:02.057Z,75.70
2018-02-09T06:15:35.811Z,84.25
2018-02-09T06:18:09.977Z,79.95
2018-02-09T06:20:45.283Z,79.43
2018-02-09T06:23:19.017Z,84.22
2018-02-09T06:25:52.601Z,89.30
2018-02-09T06:28:26.275Z,77.57
2018-02-09T06:31:00.067Z,78.97
2018-02-09T06:33:36.563Z,79.80
2018-02-09T06:36:11.148Z,77.68
2018-02-09T06:38:47.155Z,77.47
2018-02-09T06:41:24.488Z,78.90
2018-02-09T06:43:59.974Z,84.82
2018-02-09T06:46:35.781Z,81.75
2018-02-09T06:49:09.553Z,83.22
2018-02-09T06:51:43.336Z,78.15
2018-02-09T06:54:17.959Z,75.05
2018-02-09T06:56:51.739Z,73.62
2018-02-09T06:59:26.707Z,79.90
2018-02-09T07:02:00.556Z,69.53
2018-02-09T07:04:34.460Z,76.65
2018-02-09T07:07:11.189Z,75.28
2018-02-09T07:09:46.960Z,73.28
2018-02-09T07:12:20.659Z,85.87
2018-02-09T07:14:54.420Z,78.03
2018-02-09T07:17:28.963Z,80.53
2018-02-09T07:20:02.854Z,82.37
2018-02-09T07:22:36.575Z,77.65
2018-02-09T07:25:10.644Z,77.50
2018-02-09T07:27:44.435Z,76.87
2018-02-09T07:30:18.376Z,71.62
2018-02-09T07:32:52.100Z,83.62
2018-02-09T07:35:25.812Z,74.32
2018-02-09T07:37:59.650Z,77.32
2018-02-09T07:40:34.249Z,81.95
2018-02-09T07:43:08.079Z,84.90
2018-02-09T07:45:42.983Z,82.80
2018-02-09T07:48:17.696Z,75.15
2018-02-09T07:50:52.230Z,78.62
2018-02-09T07:53:26.004Z,75.90
2018-02-09T07:55:59.896Z,72.25
2018-02-09T07:58:34.455Z,71.72
2018-02-09T08:01:09.132Z,72.68
2018-02-09T08:03:42.785Z,70.93
2018-02-09T08:06:16.658Z,75.65
2018-02-09T08:08:51.420Z,75.18
2018-02-09T08:11:25.183Z,79.07
2018-02-09T08:13:58.922Z,70.40
2018-02-09T08:16:32.799Z,74.72
2018-02-09T08:19:06.528Z,71.95
2018-02-09T08:21:40.441Z,72.00
2018-02-09T08:24:14.922Z,78.53
2018-02-09T08:26:48.822Z,72.82
2018-02-09T08:29:22.644Z,70.97
2018-02-09T08:31:56.726Z,70.97
2018-02-09T08:34:31.116Z,65.65
2018-02-09T08:37:04.891Z,79.65
2018-02-09T08:39:38.640Z,79.37
2018-02-09T08:42:12.332Z,81.22
2018-02-09T08:44:46.876Z,77.35
2018-02-09T08:47:21.485Z,72.57
2018-02-09T08:49:55.331Z,69.70
2018-02-09T08:52:29.939Z,71.53
2018-02-09T08:55:03.781Z,68.90
2018-02-09T08:57:37.607Z,70.30
2018-02-09T09:00:11.638Z,76.47
2018-02-09T09:02:45.411Z,66.90
2018-02-09T09:05:19.970Z,78.28
2018-02-09T09:07:54.783Z,72.32
2018-02-09T09:10:29.456Z,76.30
2018-02-09T09:13:03.251Z,69.03
2018-02-09T09:15:37.091Z,76.30
2018-02-09T09:18:11.944Z,63.22
2018-02-09T09:20:45.732Z,61.63
2018-02-09T09:23:22.372Z,72.55
2018-02-09T09:25:58.028Z,65.47
2018-02-09T09:28:31.659Z,63.08
2018-02-09T09:31:06.347Z,71.50
2018-02-09T09:33:40.021Z,62.20
2018-02-09T09:36:13.859Z,73.97
2018-02-09T09:38:48.761Z,62.38
2018-02-09T09:41:23.254Z,67.95
2018-02-09T09:43:57.101Z,62.90
2018-02-09T09:46:30.968Z,63.85
2018-02-09T09:49:04.748Z,69.05
2018-02-09T09:51:40.116Z,73.22
2018-02-09T09:54:14.769Z,67.18
2018-02-09T09:56:48.526Z,61.35
2018-02-09T09:59:22.328Z,62.62
2018-02-09T10:01:56.927Z,66.40
2018-02-09T10:04:30.680Z,65.80
2018-02-09T10:07:04.457Z,66.43
2018-02-09T10:09:38.155Z,64.72
2018-02-09T10:12:12.987Z,72.78
2018-02-09T10:14:47.611Z,67.12
2018-02-09T10:17:21.416Z,62.62
2018-02-09T10:19:55.233Z,64.15
2018-02-09T10:22:30.953Z,71.12
2018-02-09T10:25:05.477Z,60.30
2018-02-09T10:27:39.337Z,65.78
2018-02-09T10:30:13.119Z,66.93
2018-02-09T10:32:46.948Z,68.12
2018-02-09T10:35:21.885Z,69.82
2018-02-09T10:37:55.960Z,65.22
2018-02-09T10:40:30.507Z,77.97
2018-02-09T10:43:05.108Z,68.70
2018-02-09T10:45:39.745Z,65.10
2018-02-09T10:48:14.254Z,67.90
2018-02-09T10:50:48.053Z,70.18
2018-02-09T10:53:21.912Z,64.72
2018-02-09T10:55:55.681Z,73.80
2018-02-09T10:58:30.439Z,64.82
2018-02-09T11:01:04.951Z,59.60
2018-02-09T11:03:39.744Z,54.83
2018-02-09T11:06:14.269Z,69.22
2018-02-09T11:08:48.323Z,68.97
2018-02-09T11:11:23.060Z,70.25
2018-02-09T11:13:56.755Z,64.20
2018-02-09T11:16:33.109Z,66.53
2018-02-09T11:19:06.829Z,66.45
2018-02-09T11:21:44.171Z,68.28
2018-02-09T11:24:18.623Z,64.07
2018-02-09T11:26:52.406Z,63.67
2018-02-09T11:29:26.138Z,67.47
2018-02-09T11:32:00.716Z,62.40
2018-02-09T11:34:34.408Z,65.57
2018-02-09T11:37:09.041Z,69.90
2018-02-09T11:39:43.195Z,69.72
2018-02-09T11:42:17.051Z,63.03
2018-02-09T11:44:52.833Z,65.12
2018-02-09T11:47:26.862Z,69.75
2018-02-09T11:50:01.710Z,68.50
2018-02-09T11:52:35.436Z,71.37
2018-02-09T11:55:09.335Z,73.07
2018-02-09T11:57:43.088Z,65.28
2018-02-09T12:00:17.926Z,70.75
2018-02-09T12:02:51.768Z,71.93
2018-02-09T12:05:25.605Z,67.45
2018-02-09T12:07:59.367Z,70.75
2018-02-09T12:10:33.156Z,78.10
2018-02-09T12:13:06.917Z,68.43
2018-02-09T12:15:40.663Z,61.92
2018-02-09T12:18:14.451Z,73.32
2018-02-09T12:20:48.155Z,68.30
2018-02-09T12:23:21.773Z,67.07
2018-02-09T12:25:57.297Z,67.20
2018-02-09T12:28:31.079Z,68.43
2018-02-09T12:31:04.981Z,64.78
2018-02-09T12:33:39.540Z,64.75
2018-02-09T12:36:13.307Z,65.47
2018-02-09T12:38:49.050Z,73.70
2018-02-09T12:41:22.901Z,65.03
2018-02-09T12:43:56.600Z,64.43
2018-02-09T12:46:30.473Z,57.75
2018-02-09T12:49:04.084Z,59.10
2018-02-09T12:51:37.851Z,60.58
2018-02-09T12:54:12.342Z,57.75
2018-02-09T12:56:46.268Z,59.75
2018-02-09T12:59:20.686Z,63.83
2018-02-09T13:01:54.533Z,71.25
2018-02-09T13:04:28.327Z,63.35
2018-02-09T13:07:02.110Z,54.53
2018-02-09T13:09:36.607Z,72.03
2018-02-09T13:12:23.335Z,53.92
2018-02-09T13:14:57.155Z,62.13
2018-02-09T13:17:30.955Z,56.75
2018-02-09T13:20:06.497Z,49.80
2018-02-09T13:22:52.098Z,59.30
2018-02-09T13:25:26.172Z,60.47
2018-02-09T13:27:59.931Z,56.60
2018-02-09T13:30:33.755Z,51.42
2018-02-09T13:33:20.069Z,54.05
2018-02-09T13:35:54.229Z,55.03
2018-02-09T13:38:27.914Z,51.90
2018-02-09T13:41:05.316Z,58.60
2018-02-09T13:43:38.927Z,54.65
2018-02-09T13:46:13.660Z,53.15
2018-02-09T13:48:48.496Z,52.58
2018-02-09T13:51:22.479Z,52.25
2018-02-09T13:53:56.300Z,67.57
2018-02-09T13:56:30.142Z,53.95
2018-02-09T13:59:03.968Z,58.42
2018-02-09T14:01:38.623Z,51.53
2018-02-09T14:04:12.309Z,54.00
2018-02-09T14:06:46.902Z,47.47
2018-02-09T14:09:21.490Z,54.00
2018-02-09T14:11:55.323Z,58.38
2018-02-09T14:14:29.107Z,47.92
2018-02-09T14:17:03.649Z,48.42
2018-02-09T14:19:37.446Z,46.80
2018-02-09T14:22:12.177Z,46.28
2018-02-09T14:24:46.735Z,58.30
2018-02-09T14:27:20.510Z,51.67
2018-02-09T14:29:54.267Z,52.45
2018-02-09T14:32:28.717Z,48.25
2018-02-09T14:35:02.397Z,48.42
2018-02-09T14:37:36.230Z,49.45
2018-02-09T14:40:09.980Z,48.05
2018-02-09T14:42:43.945Z,46.63
2018-02-09T14:45:18.372Z,44.17
2018-02-09T14:47:53.277Z,53.08
2018-02-09T14:50:27.102Z,51.40
2018-02-09T14:53:00.971Z,49.83
2018-02-09T14:55:35.609Z,48.40
2018-02-09T14:58:09.959Z,46.83
2018-02-09T15:00:44.783Z,43.97
2018-02-09T15:03:18.479Z,44.50
2018-02-09T15:05:52.308Z,43.97
2018-02-09T15:08:26.916Z,39.75
2018-02-09T15:11:01.664Z,41.97
2018-02-09T15:13:36.368Z,45.67
2018-02-09T15:16:10.087Z,51.78
2018-02-09T15:18:43.900Z,44.28
2018-02-09T15:21:19.602Z,50.95
2018-02-09T15:23:53.499Z,41.53
2018-02-09T15:26:27.938Z,43.53
2018-02-09T15:29:01.989Z,48.17
2018-02-09T15:31:35.973Z,47.70
2018-02-09T15:34:10.340Z,48.22
2018-02-09T15:36:44.203Z,49.33
2018-02-09T15:39:18.031Z,49.42
2018-02-09T15:41:51.791Z,52.50
2018-02-09T15:44:25.565Z,49.88
2018-02-09T15:47:00.891Z,50.45
2018-02-09T15:49:35.468Z,44.85
2018-02-09T15:52:09.397Z,52.30
2018-02-09T15:54:44.640Z,51.88
2018-02-09T15:57:18.524Z,50.95
2018-02-09T15:59:52.368Z,53.13
2018-02-09T16:02:26.268Z,51.13
2018-02-09T16:05:00.835Z,51.08
2018-02-09T16:07:34.628Z,46.42
2018-02-09T16:10:09.505Z,49.97
2018-02-09T16:12:43.358Z,44.75
2018-02-09T16:15:17.977Z,47.85
2018-02-09T16:17:51.743Z,48.65
2018-02-09T16:20:25.599Z,49.70
2018-02-09T16:22:59.716Z,50.58
2018-02-09T16:25:33.488Z,50.72
2018-02-09T16:28:08.084Z,52.67
2018-02-09T16:30:41.891Z,53.10
2018-02-09T16:33:16.523Z,56.47
2018-02-09T16:35:51.072Z,51.13
2018-02-09T16:38:24.830Z,53.15
2018-02-09T16:40:58.779Z,49.38
2018-02-09T16:43:32.895Z,53.33
2018-02-09T16:46:06.703Z,58.30
2018-02-09T16:48:40.546Z,63.17
2018-02-09T16:51:14.338Z,53.08
2018-02-09T16:53:48.151Z,52.28
2018-02-09T16:56:21.824Z,51.50
2018-02-09T16:58:56.452Z,55.05
2018-02-09T17:01:31.060Z,53.65
2018-02-09T17:04:04.999Z,55.15
2018-02-09T17:06:38.814Z,58.65
2018-02-09T17:09:12.583Z,59.47
2018-02-09T17:11:47.117Z,58.50
2018-02-09T17:14:21.223Z,52.70
2018-02-09T17:16:54.906Z,58.38
2018-02-09T17:19:28.768Z,62.83
2018-02-09T17:22:02.668Z,58.08
2018-02-09T17:24:36.492Z,58.38
2018-02-09T17:27:10.437Z,58.70
2018-02-09T17:29:44.983Z,57.72
2018-02-09T17:32:18.755Z,60.38
2018-02-09T17:34:52.371Z,51.83
2018-02-09T17:37:26.215Z,59.75
2018-02-09T17:40:00.070Z,50.70
2018-02-09T17:42:33.804Z,56.70
2018-02-09T17:45:08.673Z,54.88
2018-02-09T17:47:42.595Z,58.13
2018-02-09T17:50:16.451Z,60.92
2018-02-09T17:52:50.195Z,68.90
2018-02-09T17:55:23.992Z,55.15
2018-02-09T17:57:58.680Z,58.00
2018-02-09T18:00:32.626Z,58.00
2018-02-09T18:03:06.368Z,54.25
2018-02-09T18:05:40.108Z,59.17
2018-02-09T18:08:14.621Z,64.78
2018-02-09T18:10:48.280Z,61.92
2018-02-09T18:13:22.326Z,55.28
2018-02-09T18:15:56.490Z,68.65
2018-02-09T18:18:30.151Z,61.97
2018-02-09T18:21:03.997Z,68.68
2018-02-09T18:23:37.749Z,61.58
2018-02-09T18:26:12.455Z,65.12
2018-02-09T18:28:46.227Z,58.00
2018-02-09T18:31:20.016Z,64.12
2018-02-09T18:33:54.617Z,62.03
2018-02-09T18:36:29.336Z,64.70
2018-02-09T18:39:03.249Z,65.22
2018-02-09T18:41:37.665Z,64.25
2018-02-09T18:44:13.425Z,60.63
2018-02-09T18:46:47.434Z,66.43
2018-02-09T18:49:21.176Z,67.82
2018-02-09T18:51:55.228Z,62.00
2018-02-09T18:54:29.154Z,77.45
2018-02-09T18:57:03.192Z,58.92
2018-02-09T18:59:37.174Z,61.78
2018-02-09T19:02:11.069Z,61.58
2018-02-09T19:04:45.657Z,64.25
2018-02-09T19:07:19.371Z,66.00
2018-02-09T19:09:53.219Z,61.08
2018-02-09T19:12:27.786Z,57.65
2018-02-09T19:15:01.660Z,61.78
2018-02-09T19:17:36.211Z,56.15
2018-02-09T19:20:09.953Z,65.53
2018-02-09T19:22:43.763Z,60.12
2018-02-09T19:25:17.439Z,69.57
2018-02-09T19:27:51.223Z,76.53
2018-02-09T19:30:25.072Z,70.07
2018-02-09T19:32:58.959Z,54.60
2018-02-09T19:35:32.683Z,59.47
2018-02-09T19:38:06.358Z,59.45
2018-02-09T19:40:40.459Z,62.33
2018-02-09T19:43:14.308Z,58.95
2018-02-09T19:45:48.211Z,59.28
2018-02-09T19:48:22.131Z,64.03
2018-02-09T19:50:56.670Z,61.15
2018-02-09T19:53:30.351Z,64.25
2018-02-09T19:56:04.102Z,57.25
2018-02-09T19:58:37.844Z,60.70
2018-02-09T20:01:11.592Z,61.97
2018-02-09T20:03:46.203Z,60.08
2018-02-09T20:06:20.052Z,62.20
2018-02-09T20:08:53.869Z,56.55
2018-02-09T20:11:27.831Z,63.28
2018-02-09T20:14:01.672Z,65.87
2018-02-09T20:16:35.303Z,59.60
2018-02-09T20:19:09.895Z,59.30
2018-02-09T20:21:43.943Z,55.92
2018-02-09T20:24:17.724Z,62.92
2018-02-09T20:26:51.550Z,60.22
2018-02-09T20:29:25.285Z,70.22
2018-02-09T20:31:59.100Z,58.17
2018-02-09T20:34:32.945Z,68.25
2018-02-09T20:37:06.787Z,66.55
2018-02-09T20:39:41.317Z,58.97
2018-02-09T20:42:15.135Z,72.30
2018-02-09T20:44:48.865Z,57.20
2018-02-09T20:47:22.779Z,68.28
2018-02-09T20:49:56.522Z,60.50
2018-02-09T20:52:30.312Z,60.08
2018-02-09T20:55:04.159Z,66.57
2018-02-09T20:57:38.740Z,60.60
2018-02-09T21:00:13.753Z,65.87
2018-02-09T21:02:47.551Z,61.22
2018-02-09T21:05:21.382Z,66.50
2018-02-09T21:07:55.235Z,62.15
2018-02-09T21:10:29.856Z,57.83
2018-02-09T21:13:03.559Z,61.08
2018-02-09T21:15:37.763Z,62.78
2018-02-09T21:18:12.325Z,63.53
2018-02-09T21:20:46.111Z,59.47
2018-02-09T21:23:19.960Z,55.72
2018-02-09T21:25:53.756Z,57.25
2018-02-09T21:28:28.392Z,56.08
2018-02-09T21:31:02.774Z,55.75
2018-02-09T21:33:36.490Z,60.05
2018-02-09T21:36:11.059Z,60.30
2018-02-09T21:38:44.794Z,56.58
2018-02-09T21:41:18.467Z,67.07
2018-02-09T21:43:52.279Z,56.88
2018-02-09T21:46:26.166Z,55.08
2018-02-09T21:49:00.663Z,59.47
2018-02-09T21:51:34.435Z,58.53
2018-02-09T21:54:08.211Z,60.50
2018-02-09T21:56:42.838Z,57.40
2018-02-09T21:59:17.332Z,55.75
